Time;durP1;ratioP1;P1;durP2;ratioP2;P2;SDS_P1;SDS_P2;PMS_P1;PMS_P2;Temp;Humidity;BMP_temperature;BMP_pressure;BME280_temperature;BME280_humidity;BME280_pressure;Samples;Min_cycle;Max_cycle;Signal;HPM_P1;HPM_P2
2021/09/25 00:01:33;;;;;;;13.73;9.87;;;;;;;;;;5113941;28;20473;-58
2021/09/25 00:04:02;;;;;;;11.80;6.40;;;;;;;;;;5111518;28;20458;-61
2021/09/25 00:06:30;;;;;;;27.83;8.00;;;;;;;;;;5093992;28;20464;-59
2021/09/25 00:08:57;;;;;;;21.43;15.00;;;;;;;;;;5101851;28;20863;-57
2021/09/25 00:11:26;;;;;;;12.33;8.40;;;;;;;;;;5094232;28;20499;-58
2021/09/25 00:13:53;;;;;;;13.80;8.60;;;;;;;;;;5111098;28;20554;-57
2021/09/25 00:16:25;;;;;;;6.80;4.13;;;;;;;;;;5112546;28;20448;-61
2021/09/25 00:18:54;;;;;;;5.97;4.00;;;;;;;;;;5093957;28;20460;-60
2021/09/25 00:21:24;;;;;;;7.03;3.47;;;;;;;;;;5099002;28;20460;-58
2021/09/25 00:24:03;;;;;;;16.50;11.00;;;;;;;;;;5114151;28;20447;-60
2021/09/25 00:26:30;;;;;;;106.40;75.23;;;;;;;;;;5114331;28;20455;-58
2021/09/25 00:28:58;;;;;;;80.37;57.83;;;;;;;;;;5114511;28;20455;-60
2021/09/25 00:31:25;;;;;;;55.17;39.50;;;;;;;;;;5103554;28;20455;-59
2021/09/25 00:33:52;;;;;;;38.83;26.43;;;;;;;;;;5094126;28;20483;-52
2021/09/25 00:36:21;;;;;;;45.37;34.27;;;;;;;;;;5096322;28;20498;-56
2021/09/25 00:38:57;;;;;;;30.20;23.40;;;;;;;;;;5094440;28;20486;-60
2021/09/25 00:41:29;;;;;;;14.90;8.17;;;;;;;;;;5107736;28;20526;-62
2021/09/25 00:43:56;;;;;;;20.17;15.03;;;;;;;;;;5113796;28;20530;-56
2021/09/25 00:46:33;;;;;;;9.93;5.93;;;;;;;;;;5097192;28;20843;-59
2021/09/25 00:49:01;;;;;;;10.50;7.60;;;;;;;;;;5096323;28;20478;-60
2021/09/25 00:51:29;;;;;;;16.93;12.93;;;;;;;;;;5094514;28;20583;-58
2021/09/25 00:54:03;;;;;;;36.73;21.30;;;;;;;;;;5096165;28;20491;-62
2021/09/25 00:56:30;;;;;;;40.43;24.50;;;;;;;;;;5093029;28;20992;-62
2021/09/25 00:58:58;;;;;;;74.23;52.77;;;;;;;;;;5096950;28;20497;-53
2021/09/25 01:01:26;;;;;;;116.97;83.63;;;;;;;;;;5098826;28;20452;-59
2021/09/25 01:03:53;;;;;;;65.17;47.23;;;;;;;;;;5097537;28;20448;-63
2021/09/25 01:06:20;;;;;;;65.83;44.07;;;;;;;;;;5113671;28;20439;-62
2021/09/25 01:08:52;;;;;;;48.33;33.20;;;;;;;;;;5104044;28;20468;-61
2021/09/25 01:11:19;;;;;;;6.00;4.27;;;;;;;;;;5076043;28;20509;-58
2021/09/25 01:13:47;;;;;;;20.33;15.30;;;;;;;;;;5061229;28;20575;-55
2021/09/25 01:16:14;;;;;;;36.13;24.20;;;;;;;;;;5053071;28;20490;-58
2021/09/25 01:18:42;;;;;;;24.47;17.90;;;;;;;;;;5068683;28;20452;-59
2021/09/25 01:21:10;;;;;;;24.90;17.13;;;;;;;;;;5072740;28;20429;-57
2021/09/25 01:23:49;;;;;;;8.20;4.60;;;;;;;;;;5073199;28;20464;-60
2021/09/25 01:26:16;;;;;;;9.47;4.10;;;;;;;;;;5073013;28;20461;-58
2021/09/25 01:28:45;;;;;;;7.87;4.83;;;;;;;;;;5073395;28;20485;-57
2021/09/25 01:31:14;;;;;;;10.00;5.17;;;;;;;;;;5067971;28;20458;-61
2021/09/25 01:33:45;;;;;;;11.97;5.80;;;;;;;;;;5055343;28;20512;-59
2021/09/25 01:36:25;;;;;;;13.77;5.70;;;;;;;;;;5059299;28;20480;-54
2021/09/25 01:38:52;;;;;;;10.10;4.63;;;;;;;;;;5071400;28;20483;-59
2021/09/25 01:41:19;;;;;;;5.73;4.30;;;;;;;;;;5068786;28;20666;-58
2021/09/25 01:43:47;;;;;;;9.63;5.20;;;;;;;;;;5073245;28;20457;-57
2021/09/25 01:46:14;;;;;;;10.63;4.83;;;;;;;;;;5067586;28;20488;-58
2021/09/25 01:48:41;;;;;;;9.37;4.60;;;;;;;;;;5073225;28;20441;-61
2021/09/25 01:51:19;;;;;;;6.37;3.90;;;;;;;;;;5067249;28;20453;-62
2021/09/25 01:53:47;;;;;;;7.47;4.60;;;;;;;;;;5072593;28;20487;-55
2021/09/25 01:56:16;;;;;;;7.13;4.20;;;;;;;;;;5056820;28;20476;-59
2021/09/25 01:58:44;;;;;;;7.67;3.40;;;;;;;;;;5054904;28;20514;-61
2021/09/25 02:01:12;;;;;;;8.90;5.10;;;;;;;;;;5068914;28;20479;-55
2021/09/25 02:03:42;;;;;;;9.27;7.53;;;;;;;;;;5067976;28;20450;-60
2021/09/25 02:06:10;;;;;;;5.80;3.63;;;;;;;;;;5071912;28;20457;-61
2021/09/25 02:08:38;;;;;;;8.93;3.40;;;;;;;;;;5068888;28;20470;-59
2021/09/25 02:11:08;;;;;;;5.50;3.40;;;;;;;;;;5052812;28;20731;-62
2021/09/25 02:13:36;;;;;;;7.07;4.43;;;;;;;;;;5056939;28;20466;-53
2021/09/25 02:16:04;;;;;;;7.70;4.63;;;;;;;;;;5052410;28;20490;-56
2021/09/25 02:18:33;;;;;;;6.23;4.13;;;;;;;;;;5064647;28;20491;-61
2021/09/25 02:21:01;;;;;;;7.20;2.90;;;;;;;;;;5071775;28;20484;-59
2021/09/25 02:23:28;;;;;;;6.87;3.87;;;;;;;;;;5066627;28;20472;-56
2021/09/25 02:25:59;;;;;;;4.47;3.20;;;;;;;;;;5072281;28;20463;-58
2021/09/25 02:28:28;;;;;;;6.53;3.97;;;;;;;;;;5071537;28;20495;-57
2021/09/25 02:30:56;;;;;;;7.47;4.67;;;;;;;;;;5072100;28;20449;-58
2021/09/25 02:33:30;;;;;;;15.17;10.90;;;;;;;;;;5055387;28;20453;-51
2021/09/25 02:35:57;;;;;;;13.60;9.20;;;;;;;;;;5055607;28;20480;-57
2021/09/25 02:38:25;;;;;;;14.97;11.53;;;;;;;;;;5055519;28;20457;-61
2021/09/25 02:40:53;;;;;;;10.60;7.43;;;;;;;;;;5055704;28;20465;-56
2021/09/25 02:43:20;;;;;;;8.90;5.80;;;;;;;;;;5051604;28;20462;-58
2021/09/25 02:45:49;;;;;;;15.00;11.83;;;;;;;;;;5057667;28;20501;-62
2021/09/25 02:48:27;;;;;;;18.00;16.00;;;;;;;;;;5072806;28;20756;-58
2021/09/25 02:50:54;;;;;;;29.07;21.03;;;;;;;;;;5067026;28;20503;-61
2021/09/25 02:53:21;;;;;;;22.00;19.20;;;;;;;;;;5055245;28;20457;-57
2021/09/25 02:55:56;;;;;;;19.97;17.90;;;;;;;;;;5064215;28;20509;-59
2021/09/25 02:58:23;;;;;;;14.17;12.60;;;;;;;;;;5072691;28;20449;-61
2021/09/25 03:00:52;;;;;;;7.40;4.83;;;;;;;;;;5070950;28;20587;-57
2021/09/25 03:03:20;;;;;;;6.20;3.70;;;;;;;;;;5072975;28;20441;-57
2021/09/25 03:05:47;;;;;;;5.80;4.37;;;;;;;;;;5070703;28;20473;-53
2021/09/25 03:08:17;;;;;;;7.53;5.03;;;;;;;;;;5071928;28;20460;-58
2021/09/25 03:10:44;;;;;;;12.90;7.70;;;;;;;;;;5052254;28;20520;-55
2021/09/25 03:13:11;;;;;;;6.70;2.83;;;;;;;;;;5053153;28;20660;-57
2021/09/25 03:15:41;;;;;;;5.87;3.00;;;;;;;;;;5057640;28;20466;-60
2021/09/25 03:18:10;;;;;;;40.73;29.73;;;;;;;;;;5057420;28;20470;-59
2021/09/25 03:20:37;;;;;;;14.80;8.87;;;;;;;;;;5056347;28;20466;-60
2021/09/25 03:23:22;;;;;;;43.93;31.53;;;;;;;;;;5062915;28;20464;-55
2021/09/25 03:25:50;;;;;;;178.37;119.20;;;;;;;;;;5056287;28;20488;-60
2021/09/25 03:28:18;;;;;;;24.70;17.63;;;;;;;;;;5067487;28;20495;-58
2021/09/25 03:30:47;;;;;;;32.93;21.37;;;;;;;;;;5076712;28;20802;-57
2021/09/25 03:33:15;;;;;;;6.53;4.77;;;;;;;;;;5075871;28;20745;-56
2021/09/25 03:35:46;;;;;;;6.73;4.07;;;;;;;;;;5076446;28;20488;-57
2021/09/25 03:38:38;;;;;;;14.20;8.53;;;;;;;;;;5072928;28;20488;-56
2021/09/25 03:41:05;;;;;;;4.00;2.43;;;;;;;;;;5075152;28;20493;-60
2021/09/25 03:43:33;;;;;;;4.60;3.17;;;;;;;;;;5076286;28;20460;-59
2021/09/25 03:46:00;;;;;;;6.37;3.10;;;;;;;;;;5075242;28;20468;-60
2021/09/25 03:48:29;;;;;;;8.20;5.80;;;;;;;;;;5067014;28;20452;-58
2021/09/25 03:50:58;;;;;;;5.40;4.13;;;;;;;;;;5075229;28;20856;-57
2021/09/25 03:53:25;;;;;;;7.00;4.50;;;;;;;;;;5075747;28;20528;-58
2021/09/25 03:55:52;;;;;;;8.43;6.10;;;;;;;;;;5070492;28;20493;-59
2021/09/25 03:58:25;;;;;;;24.20;16.33;;;;;;;;;;5071775;28;20496;-59
2021/09/25 04:00:53;;;;;;;8.23;6.00;;;;;;;;;;5072246;28;20492;-59
2021/09/25 04:03:20;;;;;;;6.33;4.03;;;;;;;;;;5066926;28;20472;-57
2021/09/25 04:06:05;;;;;;;7.70;5.33;;;;;;;;;;5065537;28;20457;-60
2021/09/25 04:08:33;;;;;;;5.17;4.43;;;;;;;;;;5070701;28;20460;-54
2021/09/25 04:11:15;;;;;;;6.80;4.20;;;;;;;;;;5072568;28;20493;-61
2021/09/25 04:13:42;;;;;;;6.23;4.33;;;;;;;;;;5075257;28;20448;-59
2021/09/25 04:16:11;;;;;;;9.10;7.27;;;;;;;;;;5059010;28;20512;-60
2021/09/25 04:18:41;;;;;;;8.13;6.13;;;;;;;;;;5058607;28;20460;-62
2021/09/25 04:21:10;;;;;;;12.53;9.50;;;;;;;;;;5058218;28;20461;-60
2021/09/25 04:23:38;;;;;;;8.10;7.30;;;;;;;;;;5059848;28;20529;-60
2021/09/25 04:26:17;;;;;;;7.00;4.60;;;;;;;;;;5075207;28;20457;-57
2021/09/25 04:28:44;;;;;;;7.40;5.00;;;;;;;;;;5067135;28;20473;-57
2021/09/25 04:31:13;;;;;;;4.70;3.50;;;;;;;;;;5055787;28;20466;-60
2021/09/25 04:33:40;;;;;;;9.00;3.73;;;;;;;;;;5062467;28;20465;-60
2021/09/25 04:36:08;;;;;;;5.93;4.23;;;;;;;;;;5055374;28;20532;-58
2021/09/25 04:38:54;;;;;;;5.63;3.03;;;;;;;;;;5068168;28;20472;-62
2021/09/25 04:41:23;;;;;;;11.50;3.47;;;;;;;;;;5056764;28;20462;-62
2021/09/25 04:43:51;;;;;;;6.63;3.80;;;;;;;;;;5054997;28;20466;-60
2021/09/25 04:46:22;;;;;;;5.90;3.50;;;;;;;;;;5054712;28;20450;-55
2021/09/25 04:48:52;;;;;;;6.03;3.90;;;;;;;;;;5047391;28;20470;-53
2021/09/25 04:51:30;;;;;;;7.50;3.90;;;;;;;;;;5035714;28;20469;-57
2021/09/25 04:54:03;;;;;;;8.20;3.43;;;;;;;;;;5034786;28;20469;-54
2021/09/25 04:56:36;;;;;;;7.53;3.97;;;;;;;;;;5035527;28;20716;-60
2021/09/25 04:59:15;;;;;;;6.00;4.27;;;;;;;;;;5020602;28;20463;-60
2021/09/25 05:01:42;;;;;;;7.90;4.43;;;;;;;;;;5033330;28;20626;-55
2021/09/25 05:04:17;;;;;;;5.30;3.80;;;;;;;;;;5035203;28;20458;-61
2021/09/25 05:06:44;;;;;;;7.53;4.50;;;;;;;;;;5034851;28;20494;-60
2021/09/25 05:09:13;;;;;;;5.73;4.63;;;;;;;;;;5035019;28;20715;-57
2021/09/25 05:11:53;;;;;;;8.23;4.10;;;;;;;;;;5021892;28;20833;-59
2021/09/25 05:14:21;;;;;;;8.60;5.40;;;;;;;;;;5017624;28;20494;-59
2021/09/25 05:16:48;;;;;;;6.80;3.97;;;;;;;;;;5034140;28;20474;-59
2021/09/25 05:19:16;;;;;;;5.77;3.73;;;;;;;;;;5033428;28;20555;-55
2021/09/25 05:21:43;;;;;;;6.47;3.40;;;;;;;;;;5017408;28;20443;-60
2021/09/25 05:24:14;;;;;;;5.77;4.40;;;;;;;;;;5034529;28;20450;-55
2021/09/25 05:26:42;;;;;;;7.13;3.37;;;;;;;;;;5034242;28;20463;-58
2021/09/25 05:29:13;;;;;;;11.33;4.07;;;;;;;;;;5027780;28;20531;-59
2021/09/25 05:31:46;;;;;;;5.80;4.27;;;;;;;;;;5015529;28;20525;-61
2021/09/25 05:34:15;;;;;;;9.63;5.30;;;;;;;;;;5027120;28;20471;-56
2021/09/25 05:36:43;;;;;;;6.00;4.40;;;;;;;;;;5015390;28;20479;-57
2021/09/25 05:39:16;;;;;;;5.87;4.30;;;;;;;;;;5032918;28;20479;-59
2021/09/25 05:41:45;;;;;;;6.43;4.23;;;;;;;;;;5033246;28;20467;-59
2021/09/25 05:44:12;;;;;;;8.33;4.87;;;;;;;;;;5032905;28;20470;-57
2021/09/25 05:46:42;;;;;;;6.17;4.10;;;;;;;;;;5034404;28;20534;-57
2021/09/25 05:49:09;;;;;;;5.53;4.30;;;;;;;;;;5034189;28;20475;-61
2021/09/25 05:51:37;;;;;;;7.03;4.67;;;;;;;;;;5033336;28;20742;-54
2021/09/25 05:54:18;;;;;;;6.77;4.37;;;;;;;;;;5033457;28;20477;-58
2021/09/25 05:56:48;;;;;;;6.30;4.00;;;;;;;;;;5032406;28;20500;-58
2021/09/25 05:59:27;;;;;;;7.03;4.33;;;;;;;;;;5030012;28;20471;-61
2021/09/25 06:01:54;;;;;;;6.27;4.50;;;;;;;;;;5032925;28;20478;-56
2021/09/25 06:04:22;;;;;;;6.83;4.27;;;;;;;;;;5024172;28;20456;-54
2021/09/25 06:06:49;;;;;;;6.27;4.20;;;;;;;;;;5025898;28;20467;-59
2021/09/25 06:09:17;;;;;;;9.23;5.27;;;;;;;;;;5033057;28;20465;-58
2021/09/25 06:11:46;;;;;;;12.90;4.70;;;;;;;;;;5025013;28;20471;-61
2021/09/25 06:14:53;;;;;;;5.90;3.90;;;;;;;;;;5016712;28;20450;-53
2021/09/25 06:17:21;;;;;;;5.83;4.40;;;;;;;;;;5030457;28;20465;-59
2021/09/25 06:19:49;;;;;;;7.37;4.73;;;;;;;;;;5034021;28;20451;-59
2021/09/25 06:22:16;;;;;;;7.50;4.40;;;;;;;;;;5033898;28;20450;-57
2021/09/25 06:24:43;;;;;;;7.97;6.00;;;;;;;;;;5033672;28;20471;-57
2021/09/25 06:27:10;;;;;;;8.77;5.37;;;;;;;;;;5033589;28;20448;-60
2021/09/25 06:29:39;;;;;;;5.00;3.90;;;;;;;;;;5031455;28;20464;-59
2021/09/25 06:32:22;;;;;;;7.03;4.10;;;;;;;;;;5033234;28;20447;-57
2021/09/25 06:34:50;;;;;;;6.17;4.33;;;;;;;;;;5029658;28;20509;-56
2021/09/25 06:37:17;;;;;;;9.47;3.70;;;;;;;;;;5032749;28;20475;-59
2021/09/25 06:39:52;;;;;;;4.77;4.07;;;;;;;;;;5032423;28;20475;-58
2021/09/25 06:42:29;;;;;;;6.37;3.90;;;;;;;;;;5029254;28;20470;-60
2021/09/25 06:44:56;;;;;;;8.00;3.70;;;;;;;;;;5031968;28;20470;-57
2021/09/25 06:47:35;;;;;;;7.47;4.63;;;;;;;;;;5032032;28;20428;-57
2021/09/25 06:50:05;;;;;;;6.20;4.70;;;;;;;;;;5029669;28;20470;-60
2021/09/25 06:52:32;;;;;;;5.97;3.90;;;;;;;;;;5028001;28;20458;-56
2021/09/25 06:55:01;;;;;;;5.53;3.83;;;;;;;;;;5031738;28;20446;-61
2021/09/25 06:57:30;;;;;;;6.40;3.53;;;;;;;;;;5030616;28;20533;-56
2021/09/25 06:59:57;;;;;;;6.73;4.20;;;;;;;;;;5033402;28;20487;-60
2021/09/25 07:02:28;;;;;;;6.97;5.40;;;;;;;;;;5029779;28;20508;-59
2021/09/25 07:04:56;;;;;;;4.60;3.83;;;;;;;;;;5031669;28;20470;-63
2021/09/25 07:07:23;;;;;;;5.23;4.30;;;;;;;;;;5028555;28;20465;-58
2021/09/25 07:10:14;;;;;;;8.33;5.50;;;;;;;;;;5031544;28;20458;-60
2021/09/25 07:12:47;;;;;;;6.33;4.23;;;;;;;;;;5016528;28;20472;-60
2021/09/25 07:15:15;;;;;;;8.20;4.77;;;;;;;;;;5029951;28;20463;-57
2021/09/25 07:17:44;;;;;;;9.30;4.80;;;;;;;;;;5029576;28;20482;-59
2021/09/25 07:20:15;;;;;;;6.10;5.07;;;;;;;;;;5029359;28;20470;-58
2021/09/25 07:22:51;;;;;;;7.87;4.67;;;;;;;;;;5028156;28;20470;-59
2021/09/25 07:27:49;;;;;;;6.67;5.17;;;;;;;;;;5027200;28;20537;-57
2021/09/25 07:30:23;;;;;;;5.93;3.93;;;;;;;;;;5026568;28;20471;-57
2021/09/25 07:33:00;;;;;;;7.40;4.10;;;;;;;;;;5018905;28;20572;-59
2021/09/25 07:35:27;;;;;;;7.80;5.03;;;;;;;;;;5029893;28;20477;-60
2021/09/25 07:37:55;;;;;;;7.60;5.20;;;;;;;;;;5029713;28;20482;-61
2021/09/25 07:40:38;;;;;;;11.53;5.53;;;;;;;;;;5013647;28;20472;-60
2021/09/25 07:43:06;;;;;;;8.07;5.47;;;;;;;;;;5013753;28;20506;-62
2021/09/25 07:45:34;;;;;;;9.00;5.63;;;;;;;;;;5010858;28;20471;-59
2021/09/25 07:48:02;;;;;;;6.10;4.90;;;;;;;;;;5027569;28;20485;-56
2021/09/25 07:50:30;;;;;;;6.20;4.60;;;;;;;;;;5027159;28;20450;-59
2021/09/25 07:53:08;;;;;;;8.00;5.20;;;;;;;;;;5028432;28;20467;-55
2021/09/25 07:55:38;;;;;;;11.20;4.90;;;;;;;;;;5009547;28;20444;-57
2021/09/25 07:58:14;;;;;;;7.00;4.23;;;;;;;;;;5012699;28;20486;-61
2021/09/25 08:00:43;;;;;;;7.23;4.73;;;;;;;;;;5015358;28;20459;-58
2021/09/25 08:03:19;;;;;;;9.93;5.13;;;;;;;;;;5030577;28;20513;-60
2021/09/25 08:05:47;;;;;;;7.07;4.63;;;;;;;;;;5033308;28;20483;-56
2021/09/25 08:08:15;;;;;;;6.10;4.83;;;;;;;;;;5027963;28;20467;-58
2021/09/25 08:10:48;;;;;;;8.17;5.40;;;;;;;;;;5031890;28;20462;-59
2021/09/25 08:13:15;;;;;;;6.93;4.20;;;;;;;;;;5014672;28;20475;-58
2021/09/25 08:15:43;;;;;;;7.63;5.30;;;;;;;;;;5013701;28;20471;-59
2021/09/25 08:18:10;;;;;;;9.87;6.27;;;;;;;;;;5023969;28;20528;-58
2021/09/25 08:20:39;;;;;;;8.50;7.10;;;;;;;;;;5031329;28;20465;-59
2021/09/25 08:23:06;;;;;;;7.33;4.43;;;;;;;;;;5013708;28;20958;-59
2021/09/25 08:25:34;;;;;;;6.23;4.40;;;;;;;;;;5014894;28;20466;-59
2021/09/25 08:28:01;;;;;;;6.20;4.10;;;;;;;;;;5021322;28;20529;-59
2021/09/25 08:30:29;;;;;;;7.40;5.07;;;;;;;;;;5030027;28;20474;-60
2021/09/25 08:32:57;;;;;;;7.50;4.70;;;;;;;;;;5068358;28;20499;-60
2021/09/25 08:35:25;;;;;;;10.00;5.23;;;;;;;;;;5090450;28;20491;-57
2021/09/25 08:37:54;;;;;;;7.47;4.60;;;;;;;;;;5091343;28;20492;-58
2021/09/25 08:40:23;;;;;;;6.07;4.03;;;;;;;;;;5083736;28;20468;-56
2021/09/25 08:43:01;;;;;;;9.97;4.53;;;;;;;;;;5071022;28;20453;-58
2021/09/25 08:45:28;;;;;;;5.70;4.23;;;;;;;;;;5084499;28;20472;-58
2021/09/25 08:48:13;;;;;;;8.90;4.70;;;;;;;;;;5076469;28;20515;-58
2021/09/25 08:50:40;;;;;;;6.50;4.10;;;;;;;;;;5079623;28;20457;-59
2021/09/25 08:53:09;;;;;;;5.90;4.23;;;;;;;;;;5074750;28;20461;-61
2021/09/25 08:55:38;;;;;;;6.20;4.10;;;;;;;;;;5078910;28;20840;-56
2021/09/25 08:58:06;;;;;;;5.00;4.10;;;;;;;;;;5079212;28;20557;-62
2021/09/25 09:00:35;;;;;;;8.20;4.07;;;;;;;;;;5081344;28;20460;-54
2021/09/25 09:03:27;;;;;;;5.73;4.20;;;;;;;;;;5082882;28;20468;-58
2021/09/25 09:05:56;;;;;;;6.40;4.33;;;;;;;;;;5083426;28;20481;-58
2021/09/25 09:11:12;;;;;;;8.77;4.60;;;;;;;;;;5070805;28;20461;-58
2021/09/25 09:13:40;;;;;;;6.43;4.80;;;;;;;;;;5083912;28;20456;-55
2021/09/25 09:16:11;;;;;;;4.40;3.43;;;;;;;;;;5084515;28;20562;-59
2021/09/25 09:18:40;;;;;;;5.90;4.57;;;;;;;;;;5081792;28;20488;-60
2021/09/25 09:21:11;;;;;;;5.73;4.40;;;;;;;;;;5080300;28;20528;-61
2021/09/25 09:23:43;;;;;;;6.13;4.53;;;;;;;;;;5081649;28;20532;-59
2021/09/25 09:26:13;;;;;;;6.77;4.30;;;;;;;;;;5081842;28;20475;-60
2021/09/25 09:28:41;;;;;;;7.17;4.97;;;;;;;;;;5079829;28;20492;-59
2021/09/25 09:31:09;;;;;;;7.00;5.40;;;;;;;;;;5082627;28;20559;-59
2021/09/25 09:33:38;;;;;;;7.60;5.30;;;;;;;;;;5082761;28;20474;-61
2021/09/25 09:36:31;;;;;;;6.47;4.67;;;;;;;;;;5082281;28;20465;-59
2021/09/25 09:39:02;;;;;;;6.10;4.47;;;;;;;;;;5050493;28;20534;-59
2021/09/25 09:41:32;;;;;;;5.87;4.87;;;;;;;;;;5086761;28;20452;-60
2021/09/25 09:44:01;;;;;;;8.30;5.00;;;;;;;;;;5086053;28;20460;-58
2021/09/25 09:46:33;;;;;;;7.47;5.70;;;;;;;;;;5084243;28;20437;-57
2021/09/25 09:49:00;;;;;;;39.53;31.77;;;;;;;;;;5078038;28;20465;-59
2021/09/25 09:51:45;;;;;;;77.67;69.60;;;;;;;;;;5085437;28;20473;-59
2021/09/25 09:54:22;;;;;;;9.33;8.33;;;;;;;;;;5079859;28;20468;-60
2021/09/25 09:56:59;;;;;;;19.80;17.77;;;;;;;;;;5080762;28;20555;-60
2021/09/25 09:59:27;;;;;;;9.67;8.40;;;;;;;;;;5087787;28;20471;-56
2021/09/25 10:01:56;;;;;;;13.90;12.77;;;;;;;;;;5079978;28;20530;-59
2021/09/25 10:04:24;;;;;;;9.10;8.20;;;;;;;;;;5084244;28;20463;-61
2021/09/25 10:07:01;;;;;;;9.20;5.33;;;;;;;;;;5087559;28;20700;-60
2021/09/25 10:09:41;;;;;;;8.13;5.80;;;;;;;;;;5079119;28;21161;-57
2021/09/25 10:12:10;;;;;;;12.40;10.73;;;;;;;;;;5072571;28;20457;-57
2021/09/25 10:14:39;;;;;;;7.37;5.63;;;;;;;;;;5076045;28;20536;-60
2021/09/25 10:17:14;;;;;;;6.67;4.83;;;;;;;;;;5068133;28;20488;-59
2021/09/25 10:19:43;;;;;;;9.53;4.90;;;;;;;;;;5074235;28;20473;-60
2021/09/25 10:22:15;;;;;;;5.83;4.07;;;;;;;;;;5082985;28;20910;-56
2021/09/25 10:24:45;;;;;;;6.70;4.17;;;;;;;;;;5083893;28;20464;-56
2021/09/25 10:27:17;;;;;;;10.50;7.30;;;;;;;;;;5086422;28;20597;-60
2021/09/25 10:29:45;;;;;;;8.17;4.57;;;;;;;;;;5086674;28;20476;-56
2021/09/25 10:32:38;;;;;;;6.67;3.87;;;;;;;;;;5087657;28;20491;-59
2021/09/25 10:35:13;;;;;;;6.60;4.63;;;;;;;;;;5070549;28;20449;-60
2021/09/25 10:37:42;;;;;;;5.90;3.50;;;;;;;;;;5071097;28;20495;-58
2021/09/25 10:40:15;;;;;;;11.23;4.20;;;;;;;;;;5067299;28;20465;-57
2021/09/25 10:42:52;;;;;;;8.10;4.90;;;;;;;;;;5069099;28;20453;-59
2021/09/25 10:45:23;;;;;;;7.33;3.50;;;;;;;;;;5071460;28;20874;-57
2021/09/25 10:48:11;;;;;;;10.50;4.17;;;;;;;;;;5085058;28;20456;-61
2021/09/25 10:50:41;;;;;;;6.47;3.73;;;;;;;;;;5086247;28;20436;-56
2021/09/25 10:53:10;;;;;;;4.77;3.33;;;;;;;;;;5077954;28;20472;-59
2021/09/25 10:56:02;;;;;;;5.00;3.60;;;;;;;;;;5087377;28;20464;-60
2021/09/25 10:58:31;;;;;;;5.20;3.50;;;;;;;;;;5085178;28;20531;-56
2021/09/25 11:01:03;;;;;;;5.27;3.70;;;;;;;;;;5076334;28;20676;-57
2021/09/25 11:03:51;;;;;;;6.03;4.13;;;;;;;;;;5083820;28;20460;-56
2021/09/25 11:06:21;;;;;;;7.33;3.37;;;;;;;;;;5084025;28;20464;-58
2021/09/25 11:08:50;;;;;;;4.90;3.60;;;;;;;;;;5087441;28;20467;-59
2021/09/25 11:11:52;;;;;;;6.33;4.00;;;;;;;;;;5076262;28;20463;-61
2021/09/25 11:14:39;;;;;;;5.00;3.70;;;;;;;;;;5070618;28;20433;-55
2021/09/25 11:17:10;;;;;;;5.73;3.33;;;;;;;;;;5080559;28;20492;-59
2021/09/25 11:19:51;;;;;;;5.20;3.00;;;;;;;;;;5075483;28;20479;-59
2021/09/25 11:22:21;;;;;;;6.10;3.00;;;;;;;;;;5091156;28;20495;-57
2021/09/25 11:24:57;;;;;;;4.97;4.07;;;;;;;;;;5054522;28;20552;-60
2021/09/25 11:27:29;;;;;;;5.03;3.80;;;;;;;;;;5070371;28;20464;-56
2021/09/25 11:30:19;;;;;;;5.23;3.60;;;;;;;;;;5059801;28;20504;-57
2021/09/25 11:33:06;;;;;;;4.30;3.30;;;;;;;;;;5070783;28;20472;-59
2021/09/25 11:35:36;;;;;;;5.93;4.07;;;;;;;;;;5034995;28;20505;-60
2021/09/25 11:38:10;;;;;;;4.17;3.07;;;;;;;;;;5038870;28;20490;-60
2021/09/25 11:41:09;;;;;;;10.73;3.97;;;;;;;;;;5052284;28;20458;-59
2021/09/25 11:43:39;;;;;;;5.23;3.87;;;;;;;;;;5064472;28;20561;-58
2021/09/25 11:46:16;;;;;;;6.53;3.20;;;;;;;;;;5054943;28;20465;-60
2021/09/25 11:48:45;;;;;;;4.33;3.30;;;;;;;;;;5070341;28;20477;-63
2021/09/25 11:51:13;;;;;;;5.50;2.63;;;;;;;;;;5059031;28;20485;-60
2021/09/25 11:53:45;;;;;;;5.70;3.43;;;;;;;;;;5048334;28;20489;-57
2021/09/25 11:56:45;;;;;;;9.67;4.50;;;;;;;;;;5055012;28;20480;-60
2021/09/25 12:02:03;;;;;;;11.60;5.63;;;;;;;;;;5072993;28;20538;-56
2021/09/25 12:04:38;;;;;;;4.50;2.93;;;;;;;;;;5075542;28;20848;-56
2021/09/25 12:07:07;;;;;;;5.27;3.67;;;;;;;;;;5067727;28;20843;-62
2021/09/25 12:09:45;;;;;;;4.00;3.00;;;;;;;;;;5075821;28;20465;-55
2021/09/25 12:12:12;;;;;;;5.30;3.40;;;;;;;;;;5064020;28;20469;-59
2021/09/25 12:14:47;;;;;;;6.93;3.50;;;;;;;;;;5071710;28;20481;-59
2021/09/25 12:17:37;;;;;;;5.07;3.27;;;;;;;;;;5062950;28;20486;-59
2021/09/25 12:20:43;;;;;;;8.20;5.67;;;;;;;;;;5073409;28;20461;-58
2021/09/25 12:23:13;;;;;;;12.97;6.00;;;;;;;;;;5072923;28;20461;-61
2021/09/25 12:25:47;;;;;;;5.27;3.60;;;;;;;;;;5070137;28;20474;-60
2021/09/25 12:30:49;;;;;;;4.77;2.93;;;;;;;;;;5042144;28;20509;-57
2021/09/25 12:33:18;;;;;;;3.73;2.37;;;;;;;;;;5051134;28;20472;-60
2021/09/25 12:35:54;;;;;;;5.10;2.60;;;;;;;;;;5055064;28;20474;-59
2021/09/25 12:38:22;;;;;;;5.27;3.10;;;;;;;;;;5053129;28;20500;-58
2021/09/25 12:41:04;;;;;;;5.00;2.83;;;;;;;;;;5047233;28;20472;-59
2021/09/25 12:43:39;;;;;;;3.50;2.30;;;;;;;;;;5062752;28;20484;-57
2021/09/25 12:46:14;;;;;;;3.97;2.53;;;;;;;;;;5073969;28;20487;-54
2021/09/25 12:49:03;;;;;;;7.23;4.17;;;;;;;;;;5074491;28;20479;-59
2021/09/25 12:51:34;;;;;;;6.20;3.83;;;;;;;;;;5063477;28;20446;-59
2021/09/25 12:54:04;;;;;;;8.03;3.73;;;;;;;;;;5061754;28;20529;-58
2021/09/25 12:56:45;;;;;;;4.40;3.00;;;;;;;;;;5053853;28;20431;-60
2021/09/25 12:59:34;;;;;;;39.53;22.70;;;;;;;;;;5046104;28;20470;-59
2021/09/25 13:02:08;;;;;;;7.67;4.90;;;;;;;;;;5046224;28;20459;-61
2021/09/25 13:04:48;;;;;;;3.93;2.87;;;;;;;;;;5050259;28;20488;-59
2021/09/25 13:10:17;;;;;;;4.93;4.00;;;;;;;;;;5052591;28;20457;-56
2021/09/25 13:12:51;;;;;;;8.10;6.67;;;;;;;;;;5045517;28;20459;-57
2021/09/25 13:15:33;;;;;;;5.37;4.00;;;;;;;;;;5041653;28;20518;-58
2021/09/25 13:21:06;;;;;;;11.10;7.40;;;;;;;;;;5031772;28;20529;-56
2021/09/25 13:23:34;;;;;;;8.93;7.00;;;;;;;;;;5032344;28;20485;-59
2021/09/25 13:26:15;;;;;;;7.50;3.80;;;;;;;;;;5033979;28;20530;-58
2021/09/25 13:28:43;;;;;;;6.83;4.60;;;;;;;;;;5021674;28;20446;-59
2021/09/25 13:31:16;;;;;;;5.60;3.80;;;;;;;;;;5029616;28;20485;-59
2021/09/25 13:34:04;;;;;;;3.80;2.97;;;;;;;;;;5016358;28;20459;-58
2021/09/25 13:36:37;;;;;;;4.77;3.00;;;;;;;;;;5031519;28;20475;-59
2021/09/25 13:39:31;;;;;;;4.47;2.70;;;;;;;;;;5032605;28;20503;-62
2021/09/25 13:41:59;;;;;;;6.03;3.60;;;;;;;;;;5024732;28;20839;-51
2021/09/25 13:44:26;;;;;;;4.93;3.37;;;;;;;;;;5030580;28;20479;-58
2021/09/25 13:46:53;;;;;;;8.47;3.50;;;;;;;;;;5031414;28;20481;-60
2021/09/25 13:49:30;;;;;;;7.10;5.13;;;;;;;;;;5031719;28;20499;-56
2021/09/25 13:52:06;;;;;;;7.50;4.43;;;;;;;;;;5036792;28;20458;-54
2021/09/25 13:54:34;;;;;;;11.07;6.73;;;;;;;;;;5033428;28;20469;-59
2021/09/25 13:57:04;;;;;;;5.07;2.63;;;;;;;;;;5029394;28;20463;-60
2021/09/25 13:59:32;;;;;;;8.87;3.93;;;;;;;;;;5028030;28;20546;-57
2021/09/25 14:02:01;;;;;;;10.50;5.50;;;;;;;;;;5029147;28;20450;-56
2021/09/25 14:04:28;;;;;;;5.80;3.60;;;;;;;;;;5027657;28;20462;-60
2021/09/25 14:06:57;;;;;;;12.30;4.40;;;;;;;;;;5030313;28;20451;-57
2021/09/25 14:09:26;;;;;;;5.20;2.27;;;;;;;;;;5032712;28;20466;-57
2021/09/25 14:11:55;;;;;;;5.10;3.13;;;;;;;;;;5031495;28;20466;-59
2021/09/25 14:14:24;;;;;;;8.00;4.17;;;;;;;;;;5026670;28;20517;-62
2021/09/25 14:16:53;;;;;;;9.97;3.77;;;;;;;;;;5027666;28;20477;-59
2021/09/25 14:19:21;;;;;;;11.20;5.17;;;;;;;;;;5022882;28;20476;-62
2021/09/25 14:21:52;;;;;;;5.40;2.87;;;;;;;;;;5031984;28;20510;-61
2021/09/25 14:27:14;;;;;;;5.80;2.87;;;;;;;;;;5047215;28;20490;-62
2021/09/25 14:30:15;;;;;;;3.70;2.20;;;;;;;;;;5053340;28;20445;-61
2021/09/25 14:32:44;;;;;;;3.60;2.10;;;;;;;;;;5043943;28;20469;-60
2021/09/25 14:35:15;;;;;;;3.40;2.27;;;;;;;;;;5013799;28;20492;-61
2021/09/25 14:37:44;;;;;;;3.93;2.37;;;;;;;;;;5026925;28;20504;-60
2021/09/25 14:40:33;;;;;;;4.03;2.67;;;;;;;;;;5032610;28;20490;-57
2021/09/25 14:43:02;;;;;;;2.63;1.67;;;;;;;;;;5028985;28;20467;-60
2021/09/25 14:45:32;;;;;;;3.20;1.80;;;;;;;;;;5027335;28;20759;-59
2021/09/25 14:48:03;;;;;;;8.90;2.47;;;;;;;;;;5031830;28;20451;-55
2021/09/25 14:50:33;;;;;;;4.50;2.13;;;;;;;;;;5029679;28;20505;-56
2021/09/25 14:53:07;;;;;;;2.90;2.10;;;;;;;;;;5024676;28;20725;-61
2021/09/25 14:55:56;;;;;;;2.57;1.60;;;;;;;;;;5025079;28;20514;-58
2021/09/25 14:58:26;;;;;;;2.90;1.90;;;;;;;;;;5012534;28;20519;-61
2021/09/25 15:00:58;;;;;;;6.87;3.60;;;;;;;;;;5017957;28;20447;-59
2021/09/25 15:03:59;;;;;;;3.57;2.13;;;;;;;;;;5011798;28;20473;-60
2021/09/25 15:06:31;;;;;;;5.93;3.20;;;;;;;;;;5024309;28;20462;-58
2021/09/25 15:09:00;;;;;;;4.80;2.60;;;;;;;;;;5024137;28;20490;-61
2021/09/25 15:11:31;;;;;;;4.13;2.20;;;;;;;;;;5032604;28;20483;-61
2021/09/25 15:14:01;;;;;;;3.47;1.80;;;;;;;;;;5025295;28;20727;-61
2021/09/25 15:16:37;;;;;;;2.93;1.80;;;;;;;;;;5048853;28;20489;-62
2021/09/25 15:19:05;;;;;;;3.50;1.93;;;;;;;;;;5074359;28;20503;-62
2021/09/25 15:21:50;;;;;;;5.57;2.50;;;;;;;;;;5077165;28;20447;-61
2021/09/25 15:24:32;;;;;;;4.90;2.70;;;;;;;;;;5076552;28;20465;-60
2021/09/25 15:27:01;;;;;;;4.83;2.63;;;;;;;;;;5065451;28;20467;-56